createdAt,value
2023-03-11T00:06:34.606Z,97
2023-03-11T00:16:34.710Z,98
2023-03-11T00:36:34.665Z,98
2023-03-11T00:46:34.714Z,97
2023-03-11T00:56:34.627Z,99
2023-03-11T01:06:44.637Z,98
2023-03-11T01:16:34.708Z,100
2023-03-11T01:26:34.649Z,100
2023-03-11T01:36:34.649Z,100
2023-03-11T01:46:34.689Z,100
2023-03-11T01:56:34.759Z,100
2023-03-11T02:06:34.670Z,100
2023-03-11T02:16:34.628Z,100
2023-03-11T02:26:34.733Z,99
2023-03-11T02:36:34.667Z,100
2023-03-11T02:46:34.694Z,100
2023-03-11T02:56:34.661Z,100
2023-03-11T03:06:34.716Z,100
2023-03-11T03:16:34.671Z,100
2023-03-11T03:26:34.584Z,100
2023-03-11T03:36:34.683Z,100
2023-03-11T03:46:34.624Z,100
2023-03-11T03:56:34.791Z,100
2023-03-11T04:06:34.602Z,100
2023-03-11T04:16:34.721Z,100
2023-03-11T04:26:34.713Z,100
2023-03-11T04:36:34.647Z,100
2023-03-11T04:46:34.703Z,100
2023-03-11T04:56:34.741Z,100
2023-03-11T05:06:34.701Z,100
2023-03-11T05:16:34.718Z,100
2023-03-11T05:26:34.630Z,100
2023-03-11T05:36:34.657Z,100
2023-03-11T05:46:34.686Z,100
2023-03-11T05:56:34.656Z,100
2023-03-11T06:06:34.658Z,100
2023-03-11T06:16:34.699Z,100
2023-03-11T06:26:34.725Z,100
2023-03-11T06:36:34.693Z,100
2023-03-11T06:46:34.686Z,100
2023-03-11T06:56:34.705Z,98
2023-03-11T07:06:34.633Z,96
2023-03-11T07:16:34.736Z,95
2023-03-11T07:26:34.660Z,95
2023-03-11T07:36:34.712Z,100
2023-03-11T07:46:34.663Z,100
2023-03-11T07:56:34.669Z,100
2023-03-11T08:06:34.718Z,100
2023-03-11T08:16:34.725Z,100
2023-03-11T08:26:34.653Z,100
2023-03-11T08:36:34.645Z,100
2023-03-11T08:46:34.730Z,100
2023-03-11T08:56:34.670Z,100
2023-03-11T09:06:34.590Z,93
2023-03-11T09:16:34.821Z,86
2023-03-11T09:26:34.608Z,77
2023-03-11T09:36:34.616Z,82
2023-03-11T09:46:34.677Z,67
2023-03-11T09:56:34.640Z,57
2023-03-11T10:06:34.581Z,56
2023-03-11T10:16:34.762Z,48
2023-03-11T10:26:34.556Z,46
2023-03-11T10:36:34.655Z,44
2023-03-11T10:46:34.603Z,42
2023-03-11T10:56:34.548Z,45
2023-03-11T11:06:34.539Z,43
2023-03-11T11:16:34.569Z,41
2023-03-11T11:26:34.494Z,37
2023-03-11T11:36:34.523Z,34
2023-03-11T11:46:34.617Z,34
2023-03-11T11:56:34.502Z,33
2023-03-11T12:06:34.513Z,33
2023-03-11T12:16:34.558Z,34
2023-03-11T12:26:34.450Z,37
2023-03-11T12:36:34.468Z,36
2023-03-11T12:46:34.447Z,35
2023-03-11T12:56:34.472Z,35
2023-03-11T13:06:34.422Z,35
2023-03-11T13:16:34.525Z,34
2023-03-11T13:26:34.485Z,38
2023-03-11T13:36:34.461Z,37
2023-03-11T13:46:34.413Z,39
2023-03-11T13:56:34.501Z,38
2023-03-11T14:06:34.395Z,38
2023-03-11T14:16:34.613Z,41
2023-03-11T14:26:34.400Z,39
2023-03-11T14:36:34.396Z,40
2023-03-11T14:46:34.416Z,39
2023-03-11T14:56:34.372Z,39
2023-03-11T15:06:34.335Z,39
2023-03-11T15:16:34.554Z,39
2023-03-11T15:26:34.399Z,37
2023-03-11T15:36:34.326Z,37
2023-03-11T15:46:34.473Z,36
2023-03-11T15:56:34.331Z,37
2023-03-11T16:06:34.291Z,37
2023-03-11T16:16:34.311Z,38
2023-03-11T16:26:34.290Z,38
2023-03-11T16:36:34.426Z,39
2023-03-11T16:46:34.322Z,40
2023-03-11T16:56:34.368Z,41
2023-03-11T17:06:34.280Z,43
2023-03-11T17:16:34.389Z,43
2023-03-11T17:26:34.301Z,42
2023-03-11T17:36:34.305Z,44
2023-03-11T17:46:34.346Z,43
2023-03-11T17:56:34.297Z,44
2023-03-11T18:06:34.267Z,44
2023-03-11T18:16:34.397Z,44
2023-03-11T18:26:34.293Z,45
2023-03-11T18:36:34.277Z,47
2023-03-11T18:46:34.267Z,49
2023-03-11T18:56:34.276Z,48
2023-03-11T19:06:34.228Z,50
2023-03-11T19:16:34.309Z,53
2023-03-11T19:26:44.053Z,56
2023-03-11T19:36:34.291Z,57
2023-03-11T19:46:34.414Z,58
2023-03-11T19:56:34.439Z,60
2023-03-11T20:06:34.298Z,61
2023-03-11T20:16:34.341Z,61
2023-03-11T20:26:34.353Z,61
2023-03-11T20:36:34.480Z,60
2023-03-11T20:46:34.375Z,60
2023-03-11T20:56:34.373Z,61
2023-03-11T21:06:34.307Z,61
2023-03-11T21:16:34.453Z,61
2023-03-11T21:26:34.316Z,60
2023-03-11T21:36:34.526Z,61
2023-03-11T21:46:34.413Z,60
2023-03-11T21:56:34.344Z,58
2023-03-11T22:06:34.363Z,58
2023-03-11T22:16:34.478Z,58
2023-03-11T22:26:34.316Z,59
2023-03-11T22:36:34.314Z,59
2023-03-11T22:46:34.252Z,59
2023-03-11T22:56:34.327Z,57
2023-03-11T23:06:34.314Z,58
2023-03-11T23:16:34.439Z,57
2023-03-11T23:26:34.232Z,54
2023-03-11T23:36:34.275Z,55
2023-03-11T23:46:34.331Z,55
2023-03-11T23:56:34.280Z,55
